createdAt,value
2022-10-12T00:00:43.466Z,15.63
2022-10-12T00:03:13.216Z,17.30
2022-10-12T00:05:41.181Z,14.60
2022-10-12T00:08:13.830Z,14.93
2022-10-12T00:10:42.003Z,16.25
2022-10-12T00:13:10.938Z,16.20
2022-10-12T00:15:39.988Z,16.02
2022-10-12T00:18:08.010Z,16.13
2022-10-12T00:20:35.370Z,16.67
2022-10-12T00:23:02.723Z,14.57
2022-10-12T00:25:29.949Z,16.73
2022-10-12T00:27:57.592Z,14.88
2022-10-12T00:30:32.435Z,17.80
2022-10-12T00:32:59.862Z,15.80
2022-10-12T00:35:29.585Z,12.93
2022-10-12T00:37:56.943Z,15.52
2022-10-12T00:40:24.205Z,15.77
2022-10-12T00:42:51.646Z,13.77
2022-10-12T00:45:18.925Z,20.13
2022-10-12T00:47:56.937Z,16.45
2022-10-12T00:50:33.879Z,16.33
2022-10-12T00:53:11.573Z,14.18
2022-10-12T00:55:58.194Z,14.52
2022-10-12T01:00:53.018Z,12.63
2022-10-12T01:03:22.434Z,15.05
2022-10-12T01:05:53.392Z,13.70
2022-10-12T01:08:21.907Z,13.55
2022-10-12T01:10:59.652Z,14.73
2022-10-12T01:13:29.839Z,16.40
2022-10-12T01:16:20.126Z,16.52
2022-10-12T01:19:09.608Z,13.15
2022-10-12T01:21:48.494Z,15.50
2022-10-12T01:24:32.677Z,16.25
2022-10-12T01:27:24.840Z,13.52
2022-10-12T01:30:33.938Z,12.50
2022-10-12T01:34:09.322Z,13.30
2022-10-12T01:36:41.805Z,12.30
2022-10-12T01:39:21.434Z,16.15
2022-10-12T01:41:54.618Z,15.48
2022-10-12T01:44:23.543Z,13.32
2022-10-12T01:46:53.552Z,14.98
2022-10-12T01:49:30.115Z,13.13
2022-10-12T01:55:17.473Z,12.60
2022-10-12T01:57:50.227Z,14.85
2022-10-12T02:00:20.536Z,13.93
2022-10-12T02:02:53.940Z,12.98
2022-10-12T02:05:29.152Z,13.90
2022-10-12T02:08:20.308Z,13.82
2022-10-12T02:10:50.651Z,11.68
2022-10-12T02:13:23.110Z,14.13
2022-10-12T02:15:53.217Z,14.02
2022-10-12T02:18:24.689Z,11.43
2022-10-12T02:20:54.667Z,13.02
2022-10-12T02:23:24.637Z,13.63
2022-10-12T02:25:53.504Z,14.80
2022-10-12T02:28:24.070Z,12.25
2022-10-12T02:31:02.710Z,14.00
2022-10-12T02:33:46.163Z,13.45
2022-10-12T02:36:20.338Z,15.90
2022-10-12T02:38:57.672Z,13.23
2022-10-12T02:41:30.559Z,12.95
2022-10-12T02:44:10.876Z,14.80
2022-10-12T02:46:40.108Z,14.68
2022-10-12T02:49:08.875Z,12.02
2022-10-12T02:51:42.224Z,13.48
2022-10-12T02:54:09.769Z,13.10
2022-10-12T02:56:46.832Z,13.65
2022-10-12T02:59:18.443Z,12.88
2022-10-12T03:01:45.832Z,13.05
2022-10-12T03:04:13.147Z,13.88
2022-10-12T03:06:42.409Z,17.15
2022-10-12T03:09:10.298Z,14.75
2022-10-12T03:11:37.821Z,15.68
2022-10-12T03:14:05.748Z,15.60
2022-10-12T03:16:33.260Z,13.93
2022-10-12T03:19:00.503Z,14.32
2022-10-12T03:21:30.283Z,13.77
2022-10-12T03:23:57.521Z,13.13
2022-10-12T03:26:24.737Z,13.30
2022-10-12T03:28:52.309Z,14.73
2022-10-12T03:31:22.530Z,14.32
2022-10-12T03:33:49.972Z,16.98
2022-10-12T03:36:19.604Z,14.70
2022-10-12T03:38:46.873Z,13.93
2022-10-12T03:41:14.081Z,12.52
2022-10-12T03:43:44.634Z,14.50
2022-10-12T03:46:12.215Z,11.38
2022-10-12T03:48:39.432Z,14.95
2022-10-12T03:51:06.843Z,12.85
2022-10-12T03:53:34.391Z,14.02
2022-10-12T03:56:01.656Z,14.88
2022-10-12T03:58:28.887Z,13.02
2022-10-12T04:00:56.406Z,16.63
2022-10-12T04:03:23.676Z,14.07
2022-10-12T04:05:57.553Z,13.43
2022-10-12T04:08:26.743Z,17.55
2022-10-12T04:10:54.181Z,12.57
2022-10-12T04:13:21.578Z,13.32
2022-10-12T04:15:48.813Z,15.23
2022-10-12T04:18:20.943Z,15.70
2022-10-12T04:20:49.394Z,12.60
2022-10-12T04:23:16.980Z,12.30
2022-10-12T04:25:44.531Z,14.55
2022-10-12T04:28:11.879Z,16.73
2022-10-12T04:30:40.711Z,14.35
2022-10-12T04:33:08.044Z,16.15
2022-10-12T04:35:35.611Z,14.75
2022-10-12T04:38:10.914Z,13.45
2022-10-12T04:40:38.279Z,14.17
2022-10-12T04:43:05.589Z,14.30
2022-10-12T04:45:32.828Z,13.82
2022-10-12T04:48:00.093Z,13.73
2022-10-12T04:50:29.981Z,12.23
2022-10-12T04:52:57.701Z,14.05
2022-10-12T04:55:25.176Z,14.73
2022-10-12T04:57:52.376Z,16.42
2022-10-12T05:00:19.662Z,14.38
2022-10-12T05:02:47.486Z,13.10
2022-10-12T05:05:14.815Z,12.48
2022-10-12T05:07:45.150Z,15.00
2022-10-12T05:10:12.361Z,15.82
2022-10-12T05:12:40.114Z,12.43
2022-10-12T05:15:08.157Z,16.98
2022-10-12T05:17:35.496Z,15.90
2022-10-12T05:20:03.387Z,15.13
2022-10-12T05:22:31.747Z,14.15
2022-10-12T05:25:21.886Z,14.35
2022-10-12T05:27:50.364Z,13.73
2022-10-12T05:30:17.779Z,14.48
2022-10-12T05:32:45.020Z,12.20
2022-10-12T05:35:17.765Z,14.02
2022-10-12T05:37:45.059Z,15.35
2022-10-12T05:40:12.419Z,14.77
2022-10-12T05:42:40.023Z,14.00
2022-10-12T05:45:07.879Z,14.57
2022-10-12T05:47:39.410Z,12.57
2022-10-12T05:50:24.226Z,17.30
2022-10-12T05:52:51.430Z,15.27
2022-10-12T05:55:18.681Z,13.02
2022-10-12T05:57:51.973Z,14.02
2022-10-12T06:00:22.137Z,11.55
2022-10-12T06:02:52.069Z,12.43
2022-10-12T06:05:19.311Z,11.25
2022-10-12T06:07:58.675Z,18.58
2022-10-12T06:10:29.838Z,12.10
2022-10-12T06:12:57.447Z,13.05
2022-10-12T06:15:24.693Z,13.25
2022-10-12T06:17:51.884Z,14.43
2022-10-12T06:20:19.315Z,13.07
2022-10-12T06:22:46.570Z,15.15
2022-10-12T06:25:13.838Z,14.40
2022-10-12T06:28:06.520Z,11.63
2022-10-12T06:30:33.821Z,14.15
2022-10-12T06:33:27.706Z,14.95
2022-10-12T06:35:57.617Z,14.35
2022-10-12T06:38:24.900Z,14.68
2022-10-12T06:40:53.578Z,13.20
2022-10-12T06:43:22.737Z,15.15
2022-10-12T06:45:50.505Z,19.02
2022-10-12T06:48:18.960Z,11.90
2022-10-12T06:50:47.553Z,14.60
2022-10-12T06:53:15.155Z,12.23
2022-10-12T06:55:42.766Z,14.65
2022-10-12T06:58:10.448Z,9.90
2022-10-12T07:00:38.605Z,12.60
2022-10-12T07:03:06.312Z,15.65
2022-10-12T07:05:34.093Z,11.35
2022-10-12T07:08:01.596Z,10.15
2022-10-12T07:10:29.175Z,13.27
2022-10-12T07:12:56.731Z,15.80
2022-10-12T07:15:24.511Z,12.70
2022-10-12T07:17:52.020Z,15.38
2022-10-12T07:20:19.618Z,16.75
2022-10-12T07:22:47.116Z,13.23
2022-10-12T07:25:17.778Z,12.35
2022-10-12T07:27:48.432Z,12.50
2022-10-12T07:30:16.042Z,14.98
2022-10-12T07:32:44.580Z,17.13
2022-10-12T07:35:14.584Z,14.15
2022-10-12T07:37:42.500Z,16.63
2022-10-12T07:40:10.523Z,11.13
2022-10-12T07:42:53.760Z,11.60
2022-10-12T07:45:28.554Z,9.65
2022-10-12T07:47:56.360Z,16.33
2022-10-12T07:50:30.009Z,13.63
2022-10-12T07:52:58.340Z,12.50
2022-10-12T07:55:25.940Z,17.83
2022-10-12T07:57:53.560Z,14.45
2022-10-12T08:00:22.211Z,10.75
2022-10-12T08:02:50.002Z,14.43
2022-10-12T08:05:21.284Z,19.90
2022-10-12T08:07:49.695Z,16.65
2022-10-12T08:10:17.586Z,13.43
2022-10-12T08:12:49.748Z,12.43
2022-10-12T08:15:19.805Z,11.98
2022-10-12T08:17:47.383Z,12.73
2022-10-12T08:20:14.974Z,15.00
2022-10-12T08:22:42.483Z,10.18
2022-10-12T08:25:10.217Z,11.00
2022-10-12T08:27:40.197Z,13.25
2022-10-12T08:30:08.103Z,7.90
2022-10-12T08:32:35.757Z,17.00
2022-10-12T08:35:03.330Z,10.45
2022-10-12T08:37:31.182Z,12.65
2022-10-12T08:40:03.010Z,9.13
2022-10-12T08:42:44.368Z,9.35
2022-10-12T08:45:30.407Z,7.55
2022-10-12T08:48:01.495Z,8.90
2022-10-12T08:50:39.277Z,6.55
2022-10-12T08:53:15.564Z,10.07
2022-10-12T08:55:45.308Z,8.25
2022-10-12T08:58:22.751Z,8.18
2022-10-12T09:00:53.290Z,9.10
2022-10-12T09:03:27.213Z,10.60
2022-10-12T09:06:13.577Z,10.48
2022-10-12T09:08:49.556Z,11.02
2022-10-12T09:11:26.331Z,7.47
2022-10-12T09:14:19.469Z,8.23
2022-10-12T09:16:48.219Z,9.65
2022-10-12T09:19:18.403Z,6.40
2022-10-12T09:21:47.466Z,10.88
2022-10-12T09:24:19.860Z,14.88
2022-10-12T09:26:49.313Z,8.68
2022-10-12T09:29:35.073Z,9.50
2022-10-12T09:32:09.784Z,9.63
2022-10-12T09:34:37.698Z,10.40
2022-10-12T09:37:44.321Z,8.60
2022-10-12T09:43:23.738Z,7.72
2022-10-12T09:45:51.528Z,13.35
2022-10-12T09:48:20.904Z,10.23
2022-10-12T09:50:50.489Z,9.63
2022-10-12T09:53:23.254Z,10.98
2022-10-12T09:55:55.388Z,10.68
2022-10-12T09:58:23.564Z,12.50
2022-10-12T10:01:39.506Z,6.78
2022-10-12T10:04:38.034Z,17.30
2022-10-12T10:07:23.985Z,10.52
2022-10-12T10:10:08.182Z,8.77
2022-10-12T10:12:39.057Z,9.77
2022-10-12T10:15:33.585Z,10.27
2022-10-12T10:21:40.117Z,8.18
2022-10-12T10:24:08.678Z,11.25
2022-10-12T10:27:01.109Z,11.30
2022-10-12T10:30:38.072Z,12.45
2022-10-12T10:34:02.711Z,7.85
2022-10-12T10:36:30.336Z,9.52
2022-10-12T10:39:04.800Z,8.85
2022-10-12T10:41:39.773Z,10.05
2022-10-12T10:44:21.877Z,8.07
2022-10-12T10:46:49.875Z,11.85
2022-10-12T10:49:30.388Z,11.48
2022-10-12T10:52:00.531Z,9.88
2022-10-12T10:54:33.933Z,8.45
2022-10-12T10:57:21.812Z,12.32
2022-10-12T10:59:59.835Z,8.05
2022-10-12T11:02:51.860Z,7.85
2022-10-12T11:05:44.198Z,11.07
2022-10-12T11:08:15.342Z,8.88
2022-10-12T11:10:44.548Z,10.30
2022-10-12T11:13:21.076Z,10.15
2022-10-12T11:16:38.764Z,9.05
2022-10-12T11:19:14.825Z,12.07
2022-10-12T11:29:06.588Z,13.43
2022-10-12T11:31:39.253Z,9.30
2022-10-12T11:34:13.300Z,11.00
2022-10-12T11:37:18.710Z,10.65
2022-10-12T11:39:37.872Z,9.95
2022-10-12T11:42:22.867Z,11.75
2022-10-12T11:44:50.731Z,9.50
2022-10-12T11:50:58.897Z,8.27
2022-10-12T11:57:13.816Z,10.00
2022-10-12T12:07:17.623Z,9.02
2022-10-12T12:09:50.118Z,8.20
2022-10-12T12:12:27.470Z,8.68
2022-10-12T12:14:55.008Z,7.82
2022-10-12T12:17:23.788Z,10.20
2022-10-12T12:20:11.333Z,10.13
2022-10-12T12:22:56.926Z,12.50
2022-10-12T12:25:30.734Z,12.27
2022-10-12T12:28:02.080Z,8.85
2022-10-12T12:30:34.267Z,7.85
2022-10-12T12:33:06.987Z,9.32
2022-10-12T12:36:30.886Z,7.93
2022-10-12T12:38:58.888Z,7.20
2022-10-12T12:41:51.953Z,11.23
2022-10-12T12:44:37.179Z,9.20
2022-10-12T12:47:26.166Z,7.18
2022-10-12T12:49:55.911Z,8.95
2022-10-12T12:52:33.728Z,10.73
2022-10-12T12:55:10.454Z,9.93
2022-10-12T12:57:57.891Z,10.77
2022-10-12T13:00:50.320Z,9.40
2022-10-12T13:03:20.905Z,11.10
2022-10-12T13:06:20.744Z,11.75
2022-10-12T13:09:07.221Z,8.65
2022-10-12T13:11:40.331Z,9.75
2022-10-12T13:14:21.316Z,8.38
2022-10-12T13:17:32.436Z,8.65
2022-10-12T13:20:17.055Z,10.50
2022-10-12T13:22:45.872Z,7.13
2022-10-12T13:25:36.697Z,8.10
2022-10-12T13:28:21.396Z,8.82
2022-10-12T13:30:54.942Z,9.02
2022-10-12T13:34:06.674Z,10.07
2022-10-12T13:36:36.916Z,7.63
2022-10-12T13:39:19.599Z,8.98
2022-10-12T13:41:48.013Z,10.38
2022-10-12T13:44:22.224Z,6.90
2022-10-12T13:46:51.520Z,8.20
2022-10-12T13:49:22.612Z,8.35
2022-10-12T13:51:54.786Z,5.85
2022-10-12T13:57:32.265Z,5.50
2022-10-12T14:00:19.407Z,7.45
2022-10-12T14:06:05.513Z,8.90
2022-10-12T14:08:38.623Z,7.97
2022-10-12T14:11:06.405Z,11.98
2022-10-12T14:13:35.383Z,9.00
2022-10-12T14:16:06.212Z,14.75
2022-10-12T14:18:41.440Z,10.20
2022-10-12T14:21:25.420Z,10.27
2022-10-12T14:27:12.286Z,11.75
2022-10-12T14:29:39.823Z,12.45
2022-10-12T14:32:12.668Z,10.02
2022-10-12T14:34:45.141Z,12.73
2022-10-12T14:37:15.716Z,10.52
2022-10-12T14:40:10.200Z,9.77
2022-10-12T14:46:10.084Z,13.18
2022-10-12T14:48:37.782Z,10.18
2022-10-12T14:51:05.345Z,8.13
2022-10-12T14:53:58.065Z,7.50
2022-10-12T14:56:25.658Z,10.10
2022-10-12T14:58:53.338Z,7.50
2022-10-12T15:01:21.605Z,10.05
2022-10-12T15:08:03.929Z,9.98
2022-10-12T15:10:31.498Z,7.50
2022-10-12T15:12:59.019Z,10.68
2022-10-12T15:15:32.751Z,8.10
2022-10-12T15:18:00.372Z,8.93
2022-10-12T15:20:33.035Z,10.65
2022-10-12T15:23:08.276Z,9.15
2022-10-12T15:33:02.854Z,10.57
2022-10-12T15:35:33.070Z,11.35
2022-10-12T15:38:00.643Z,7.80
2022-10-12T15:47:18.784Z,10.50
2022-10-12T15:49:46.468Z,10.02
2022-10-12T15:52:14.160Z,8.48
2022-10-12T15:54:45.530Z,7.60
2022-10-12T15:57:33.507Z,8.07
2022-10-12T16:00:01.070Z,10.40
2022-10-12T16:02:28.608Z,12.18
2022-10-12T16:04:56.920Z,11.45
2022-10-12T16:07:24.402Z,6.97
2022-10-12T16:10:22.737Z,9.52
2022-10-12T16:12:51.748Z,9.65
2022-10-12T16:15:23.747Z,8.60
2022-10-12T16:17:54.508Z,8.23
2022-10-12T16:20:22.641Z,9.48
2022-10-12T16:22:50.481Z,7.97
2022-10-12T16:25:19.170Z,8.63
2022-10-12T16:27:46.944Z,10.18
2022-10-12T16:30:15.256Z,9.90
2022-10-12T16:32:42.950Z,8.38
2022-10-12T16:35:10.691Z,8.40
2022-10-12T16:37:38.445Z,6.15
2022-10-12T16:40:06.715Z,11.88
2022-10-12T16:42:34.223Z,11.55
2022-10-12T16:45:02.161Z,12.32
2022-10-12T16:47:29.839Z,11.30
2022-10-12T16:49:57.452Z,9.43
2022-10-12T16:52:26.319Z,12.20
2022-10-12T16:54:54.475Z,9.75
2022-10-12T16:57:23.603Z,9.90
2022-10-12T16:59:58.701Z,10.48
2022-10-12T17:05:36.369Z,10.35
2022-10-12T17:08:03.965Z,9.52
2022-10-12T17:10:31.490Z,7.07
2022-10-12T17:13:07.973Z,11.85
2022-10-12T17:15:47.025Z,14.30
2022-10-12T17:18:14.539Z,12.63
2022-10-12T17:21:07.317Z,12.23
2022-10-12T17:23:34.897Z,10.55
2022-10-12T17:26:26.795Z,10.38
2022-10-12T17:28:55.435Z,14.27
2022-10-12T17:35:10.499Z,12.95
2022-10-12T17:37:38.331Z,10.95
2022-10-12T17:40:10.639Z,12.00
2022-10-12T17:42:38.675Z,10.60
2022-10-12T17:45:16.632Z,13.13
2022-10-12T17:47:44.354Z,12.27
2022-10-12T17:50:40.367Z,12.43
2022-10-12T17:53:39.834Z,13.45
2022-10-12T17:59:07.893Z,14.35
2022-10-12T18:01:35.544Z,17.48
2022-10-12T18:04:04.450Z,14.63
2022-10-12T18:06:33.207Z,12.60
2022-10-12T18:09:02.234Z,12.38
2022-10-12T18:11:29.849Z,13.38
2022-10-12T18:13:58.021Z,12.50
2022-10-12T18:16:55.522Z,9.27
2022-10-12T18:19:52.634Z,11.32
2022-10-12T18:22:20.387Z,10.48
2022-10-12T18:24:48.940Z,16.80
2022-10-12T18:30:23.646Z,13.75
2022-10-12T18:32:51.316Z,12.70
2022-10-12T18:35:18.838Z,13.02
2022-10-12T18:37:46.314Z,14.65
2022-10-12T18:40:14.150Z,13.18
2022-10-12T18:42:41.734Z,10.20
2022-10-12T18:45:09.396Z,9.90
2022-10-12T18:47:37.461Z,13.43
2022-10-12T18:50:05.696Z,8.60
2022-10-12T18:53:20.525Z,13.60
2022-10-12T18:55:48.144Z,13.65
2022-10-12T18:58:15.707Z,11.93
2022-10-12T19:04:11.495Z,17.75
2022-10-12T19:06:41.952Z,16.55
2022-10-12T19:09:10.421Z,12.23
2022-10-12T19:11:38.122Z,14.45
2022-10-12T19:14:07.447Z,12.77
2022-10-12T19:16:41.732Z,13.15
2022-10-12T19:19:59.538Z,13.63
2022-10-12T19:25:10.539Z,10.23
2022-10-12T19:27:38.220Z,12.23
2022-10-12T19:37:36.193Z,11.45
2022-10-12T19:40:07.767Z,11.52
2022-10-12T19:42:35.730Z,12.98
2022-10-12T19:45:03.296Z,13.98
2022-10-12T19:48:19.286Z,13.35
2022-10-12T19:50:47.088Z,18.38
2022-10-12T19:54:00.988Z,14.93
2022-10-12T20:03:06.538Z,18.73
2022-10-12T20:05:34.573Z,19.63
2022-10-12T20:08:02.166Z,13.40
2022-10-12T20:17:50.182Z,15.15
2022-10-12T20:20:45.259Z,16.42
2022-10-12T20:23:13.297Z,16.88
2022-10-12T20:25:47.742Z,14.95
2022-10-12T20:28:15.390Z,12.80
2022-10-12T20:30:42.962Z,14.10
2022-10-12T20:33:11.913Z,12.57
2022-10-12T20:39:01.581Z,19.02
2022-10-12T20:41:29.444Z,17.27
2022-10-12T20:44:00.894Z,13.65
2022-10-12T20:53:21.760Z,15.52
2022-10-12T20:59:58.510Z,19.20
2022-10-12T21:02:29.383Z,15.88
2022-10-12T21:04:57.009Z,17.15
2022-10-12T21:10:01.929Z,17.67
2022-10-12T21:12:33.697Z,16.30
2022-10-12T21:15:03.671Z,19.20
2022-10-12T21:17:31.236Z,17.33
2022-10-12T21:20:00.735Z,17.20
2022-10-12T21:26:27.067Z,16.67
2022-10-12T21:28:54.980Z,15.57
2022-10-12T21:31:23.427Z,13.15
2022-10-12T21:33:52.712Z,15.68
2022-10-12T21:36:22.489Z,13.60
2022-10-12T21:38:50.566Z,14.05
2022-10-12T21:41:29.944Z,19.20
2022-10-12T21:44:00.102Z,16.33
2022-10-12T21:47:08.336Z,15.52
2022-10-12T21:49:35.927Z,16.75
2022-10-12T21:52:03.651Z,15.52
2022-10-12T21:54:33.881Z,16.85
2022-10-12T21:57:07.356Z,18.17
2022-10-12T21:59:34.951Z,18.02
2022-10-12T22:02:09.917Z,12.85
2022-10-12T22:05:29.424Z,18.60
2022-10-12T22:07:57.004Z,17.77
2022-10-12T22:10:24.662Z,18.58
2022-10-12T22:12:52.155Z,17.35
2022-10-12T22:15:24.033Z,16.27
2022-10-12T22:18:14.486Z,21.00
2022-10-12T22:20:51.032Z,15.32
2022-10-12T22:23:18.702Z,15.50
2022-10-12T22:25:47.280Z,17.98
2022-10-12T22:28:14.917Z,15.70
2022-10-12T22:30:43.664Z,12.68
2022-10-12T22:33:17.637Z,14.15
2022-10-12T22:35:58.044Z,17.30
2022-10-12T22:38:31.518Z,13.65
2022-10-12T22:41:12.226Z,15.43
2022-10-12T22:43:46.876Z,15.70
2022-10-12T22:46:14.475Z,17.83
2022-10-12T22:48:42.307Z,13.85
2022-10-12T22:51:14.952Z,15.90
2022-10-12T22:53:51.792Z,14.68
2022-10-12T22:56:19.482Z,15.95
2022-10-12T22:58:54.328Z,13.07
2022-10-12T23:01:22.244Z,15.20
2022-10-12T23:03:49.952Z,19.05
2022-10-12T23:06:42.973Z,15.82
2022-10-12T23:09:10.484Z,19.35
2022-10-12T23:11:38.038Z,21.75
2022-10-12T23:14:05.579Z,14.80
2022-10-12T23:16:33.857Z,18.48
2022-10-12T23:19:02.574Z,18.33
2022-10-12T23:21:30.864Z,21.88
2022-10-12T23:23:59.503Z,16.50
2022-10-12T23:26:27.674Z,17.83
2022-10-12T23:28:55.833Z,16.58
2022-10-12T23:31:24.783Z,19.27
2022-10-12T23:33:57.310Z,15.85
2022-10-12T23:36:25.316Z,18.35
2022-10-12T23:38:52.836Z,18.58
2022-10-12T23:41:20.403Z,18.50
2022-10-12T23:43:47.991Z,17.02
2022-10-12T23:46:15.587Z,18.92
2022-10-12T23:48:43.168Z,18.08
2022-10-12T23:51:10.934Z,17.52
2022-10-12T23:53:38.982Z,16.88
2022-10-12T23:56:07.254Z,20.83
2022-10-12T23:58:35.292Z,19.38
